sensor_id;sensor_type;location;lat;lon;timestamp;pressure;altitude;pressure_sealevel;temperature;humidity
61037;BME280;57313;47.040;15.498;2022-07-24T00:01:40;97129.59;;;19.90;100.00
61037;BME280;57313;47.040;15.498;2022-07-24T00:04:08;97137.97;;;19.85;100.00
61037;BME280;57313;47.040;15.498;2022-07-24T00:06:36;97141.34;;;19.96;100.00
61037;BME280;57313;47.040;15.498;2022-07-24T00:09:04;97134.09;;;19.98;100.00
61037;BME280;57313;47.040;15.498;2022-07-24T00:11:35;97141.34;;;19.96;100.00
61037;BME280;57313;47.040;15.498;2022-07-24T00:14:03;97148.63;;;19.94;100.00
61037;BME280;57313;47.040;15.498;2022-07-24T00:16:36;97122.19;;;19.94;100.00
61037;BME280;57313;47.040;15.498;2022-07-24T00:19:05;97132.06;;;19.91;100.00
61037;BME280;57313;47.040;15.498;2022-07-24T00:21:33;97114.19;;;19.85;100.00
61037;BME280;57313;47.040;15.498;2022-07-24T00:24:01;97114.03;;;19.87;100.00
61037;BME280;57313;47.040;15.498;2022-07-24T00:26:28;97120.19;;;19.87;100.00
61037;BME280;57313;47.040;15.498;2022-07-24T00:28:57;97111.72;;;19.84;100.00
61037;BME280;57313;47.040;15.498;2022-07-24T00:31:25;97116.19;;;19.83;100.00
61037;BME280;57313;47.040;15.498;2022-07-24T00:33:57;97118.66;;;19.85;100.00
61037;BME280;57313;47.040;15.498;2022-07-24T00:36:25;97123.59;;;19.80;100.00
61037;BME280;57313;47.040;15.498;2022-07-24T00:38:52;97116.91;;;19.76;100.00
61037;BME280;57313;47.040;15.498;2022-07-24T00:41:20;97108.72;;;19.79;100.00
61037;BME280;57313;47.040;15.498;2022-07-24T00:44:05;97108.72;;;19.79;100.00
61037;BME280;57313;47.040;15.498;2022-07-24T00:46:34;97115.09;;;19.76;100.00
61037;BME280;57313;47.040;15.498;2022-07-24T00:49:04;97115.41;;;19.73;100.00
61037;BME280;57313;47.040;15.498;2022-07-24T00:51:45;97112.75;;;19.73;100.00
61037;BME280;57313;47.040;15.498;2022-07-24T00:54:14;97104.84;;;19.73;100.00
61037;BME280;57313;47.040;15.498;2022-07-24T00:56:44;97111.44;;;19.69;100.00
61037;BME280;57313;47.040;15.498;2022-07-24T00:59:14;97107.13;;;19.68;100.00
61037;BME280;57313;47.040;15.498;2022-07-24T01:01:42;97109.94;;;19.66;100.00
61037;BME280;57313;47.040;15.498;2022-07-24T01:04:10;97111.91;;;19.64;100.00
61037;BME280;57313;47.040;15.498;2022-07-24T01:06:40;97120.50;;;19.66;100.00
61037;BME280;57313;47.040;15.498;2022-07-24T01:09:07;97119.13;;;19.62;100.00
61037;BME280;57313;47.040;15.498;2022-07-24T01:11:36;97128.41;;;19.66;100.00
61037;BME280;57313;47.040;15.498;2022-07-24T01:14:04;97125.28;;;19.63;100.00
61037;BME280;57313;47.040;15.498;2022-07-24T01:16:34;97128.09;;;19.69;100.00
61037;BME280;57313;47.040;15.498;2022-07-24T01:19:01;97124.66;;;19.69;100.00
61037;BME280;57313;47.040;15.498;2022-07-24T01:21:32;97111.94;;;19.72;100.00
61037;BME280;57313;47.040;15.498;2022-07-24T01:23:59;97103.34;;;19.70;100.00
61037;BME280;57313;47.040;15.498;2022-07-24T01:26:27;97105.47;;;19.67;100.00
61037;BME280;57313;47.040;15.498;2022-07-24T01:28:55;97108.56;;;19.62;100.00
61037;BME280;57313;47.040;15.498;2022-07-24T01:31:22;97116.81;;;19.59;100.00
61037;BME280;57313;47.040;15.498;2022-07-24T01:33:50;97123.91;;;19.59;100.00
61037;BME280;57313;47.040;15.498;2022-07-24T01:36:18;97115.31;;;19.57;100.00
61037;BME280;57313;47.040;15.498;2022-07-24T01:38:47;97134.94;;;19.54;100.00
61037;BME280;57313;47.040;15.498;2022-07-24T01:41:15;97133.91;;;19.47;100.00
61037;BME280;57313;47.040;15.498;2022-07-24T01:43:43;97134.06;;;19.45;100.00
61037;BME280;57313;47.040;15.498;2022-07-24T01:46:10;97129.75;;;19.44;100.00
61037;BME280;57313;47.040;15.498;2022-07-24T01:48:38;97133.91;;;19.47;100.00
61037;BME280;57313;47.040;15.498;2022-07-24T01:51:05;97146.25;;;19.46;100.00
61037;BME280;57313;47.040;15.498;2022-07-24T01:53:33;97144.78;;;19.44;100.00
61037;BME280;57313;47.040;15.498;2022-07-24T01:56:03;97151.84;;;19.43;100.00
61037;BME280;57313;47.040;15.498;2022-07-24T01:58:31;97152.31;;;19.38;100.00
61037;BME280;57313;47.040;15.498;2022-07-24T02:00:59;97159.56;;;19.36;100.00
61037;BME280;57313;47.040;15.498;2022-07-24T02:03:26;97155.25;;;19.35;100.00
61037;BME280;57313;47.040;15.498;2022-07-24T02:05:54;97162.19;;;19.36;100.00
61037;BME280;57313;47.040;15.498;2022-07-24T02:08:22;97152.16;;;19.40;100.00
61037;BME280;57313;47.040;15.498;2022-07-24T02:10:49;97157.28;;;19.42;100.00
61037;BME280;57313;47.040;15.498;2022-07-24T02:13:17;97148.38;;;19.43;100.00
61037;BME280;57313;47.040;15.498;2022-07-24T02:15:45;97154.34;;;19.45;100.00
61037;BME280;57313;47.040;15.498;2022-07-24T02:18:13;97148.22;;;19.44;100.00
61037;BME280;57313;47.040;15.498;2022-07-24T02:20:40;97154.34;;;19.45;100.00
61037;BME280;57313;47.040;15.498;2022-07-24T02:23:07;97147.41;;;19.44;100.00
61037;BME280;57313;47.040;15.498;2022-07-24T02:25:35;97158.66;;;19.46;100.00
61037;BME280;57313;47.040;15.498;2022-07-24T02:28:03;97170.88;;;19.47;100.00
61037;BME280;57313;47.040;15.498;2022-07-24T02:30:32;97159.63;;;19.45;100.00
61037;BME280;57313;47.040;15.498;2022-07-24T02:32:59;97158.81;;;19.44;100.00
61037;BME280;57313;47.040;15.498;2022-07-24T02:35:30;97157.97;;;19.44;100.00
61037;BME280;57313;47.040;15.498;2022-07-24T02:37:57;97161.91;;;19.40;100.00
61037;BME280;57313;47.040;15.498;2022-07-24T02:40:24;97156.63;;;19.40;100.00
61037;BME280;57313;47.040;15.498;2022-07-24T02:42:52;97156.31;;;19.43;100.00
61037;BME280;57313;47.040;15.498;2022-07-24T02:45:20;97147.56;;;19.42;100.00
61037;BME280;57313;47.040;15.498;2022-07-24T02:47:51;97158.94;;;19.43;100.00
61037;BME280;57313;47.040;15.498;2022-07-24T02:50:20;97165.22;;;19.42;100.00
61037;BME280;57313;47.040;15.498;2022-07-24T02:52:49;97167.31;;;19.38;100.00
61037;BME280;57313;47.040;15.498;2022-07-24T02:55:16;97170.41;;;19.33;100.00
61037;BME280;57313;47.040;15.498;2022-07-24T02:57:44;97170.56;;;19.32;100.00
61037;BME280;57313;47.040;15.498;2022-07-24T03:00:14;97169.44;;;19.34;100.00
61037;BME280;57313;47.040;15.498;2022-07-24T03:02:42;97178.03;;;19.36;100.00
61037;BME280;57313;47.040;15.498;2022-07-24T03:05:12;97183.47;;;19.35;100.00
61037;BME280;57313;47.040;15.498;2022-07-24T03:07:40;97189.28;;;19.38;100.00
61037;BME280;57313;47.040;15.498;2022-07-24T03:10:10;97175.41;;;19.36;100.00
61037;BME280;57313;47.040;15.498;2022-07-24T03:12:37;97185.16;;;19.36;100.00
61037;BME280;57313;47.040;15.498;2022-07-24T03:15:05;97199.31;;;19.35;100.00
61037;BME280;57313;47.040;15.498;2022-07-24T03:17:33;97185.75;;;19.30;100.00
61037;BME280;57313;47.040;15.498;2022-07-24T03:20:01;97208.50;;;19.31;100.00
61037;BME280;57313;47.040;15.498;2022-07-24T03:22:31;97198.78;;;19.31;100.00
61037;BME280;57313;47.040;15.498;2022-07-24T03:24:58;97198.78;;;19.31;100.00
61037;BME280;57313;47.040;15.498;2022-07-24T03:27:25;97191.53;;;19.33;100.00
61037;BME280;57313;47.040;15.498;2022-07-24T03:29:53;97206.56;;;19.33;100.00
61037;BME280;57313;47.040;15.498;2022-07-24T03:32:21;97197.78;;;19.32;100.00
61037;BME280;57313;47.040;15.498;2022-07-24T03:34:49;97201.28;;;19.33;100.00
61037;BME280;57313;47.040;15.498;2022-07-24T03:37:16;97207.25;;;19.35;100.00
61037;BME280;57313;47.040;15.498;2022-07-24T03:39:45;97196.16;;;19.31;100.00
61037;BME280;57313;47.040;15.498;2022-07-24T03:42:12;97194.63;;;19.29;100.00
61037;BME280;57313;47.040;15.498;2022-07-24T03:44:40;97197.44;;;19.27;100.00
61037;BME280;57313;47.040;15.498;2022-07-24T03:47:07;97206.88;;;19.30;100.00
61037;BME280;57313;47.040;15.498;2022-07-24T03:49:35;97207.03;;;19.28;100.00
61037;BME280;57313;47.040;15.498;2022-07-24T03:52:03;97213.56;;;19.24;100.00
61037;BME280;57313;47.040;15.498;2022-07-24T03:54:31;97214.69;;;19.22;100.00
61037;BME280;57313;47.040;15.498;2022-07-24T03:57:00;97208.44;;;19.23;100.00
61037;BME280;57313;47.040;15.498;2022-07-24T03:59:28;97212.44;;;19.27;100.00
61037;BME280;57313;47.040;15.498;2022-07-24T04:01:56;97216.22;;;19.24;100.00
61037;BME280;57313;47.040;15.498;2022-07-24T04:04:23;97220.06;;;19.30;100.00
61037;BME280;57313;47.040;15.498;2022-07-24T04:06:50;97224.06;;;19.34;100.00
61037;BME280;57313;47.040;15.498;2022-07-24T04:09:18;97224.19;;;19.32;100.00
61037;BME280;57313;47.040;15.498;2022-07-24T04:12:00;97219.22;;;19.29;100.00
61037;BME280;57313;47.040;15.498;2022-07-24T04:14:28;97221.19;;;19.27;100.00
61037;BME280;57313;47.040;15.498;2022-07-24T04:16:55;97228.00;;;19.30;100.00
61037;BME280;57313;47.040;15.498;2022-07-24T04:19:23;97234.91;;;19.31;100.00
61037;BME280;57313;47.040;15.498;2022-07-24T04:21:50;97236.88;;;19.29;100.00
61037;BME280;57313;47.040;15.498;2022-07-24T04:24:18;97245.03;;;19.35;100.00
61037;BME280;57313;47.040;15.498;2022-07-24T04:26:45;97243.09;;;19.37;100.00
61037;BME280;57313;47.040;15.498;2022-07-24T04:29:15;97238.63;;;19.38;100.00
61037;BME280;57313;47.040;15.498;2022-07-24T04:31:48;97238.78;;;19.36;100.00
61037;BME280;57313;47.040;15.498;2022-07-24T04:34:16;97245.03;;;19.35;100.00
61037;BME280;57313;47.040;15.498;2022-07-24T04:36:44;97252.13;;;19.35;100.00
61037;BME280;57313;47.040;15.498;2022-07-24T04:39:11;97247.50;;;19.37;100.00
61037;BME280;57313;47.040;15.498;2022-07-24T04:41:40;97251.97;;;19.36;100.00
61037;BME280;57313;47.040;15.498;2022-07-24T04:44:08;97257.41;;;19.35;100.00
61037;BME280;57313;47.040;15.498;2022-07-24T04:46:37;97259.91;;;19.36;100.00
61037;BME280;57313;47.040;15.498;2022-07-24T04:49:04;97259.75;;;19.38;100.00
61037;BME280;57313;47.040;15.498;2022-07-24T04:51:32;97269.50;;;19.37;100.00
61037;BME280;57313;47.040;15.498;2022-07-24T04:54:00;97277.13;;;19.41;100.00
61037;BME280;57313;47.040;15.498;2022-07-24T04:56:27;97275.97;;;19.43;100.00
61037;BME280;57313;47.040;15.498;2022-07-24T04:58:55;97281.94;;;19.45;100.00
61037;BME280;57313;47.040;15.498;2022-07-24T05:01:23;97270.53;;;19.45;100.00
61037;BME280;57313;47.040;15.498;2022-07-24T05:03:53;97280.81;;;19.48;100.00
61037;BME280;57313;47.040;15.498;2022-07-24T05:06:21;97275.91;;;19.53;100.00
61037;BME280;57313;47.040;15.498;2022-07-24T05:08:49;97276.75;;;19.53;100.00
61037;BME280;57313;47.040;15.498;2022-07-24T05:11:16;97285.34;;;19.55;100.00
61037;BME280;57313;47.040;15.498;2022-07-24T05:13:44;97288.66;;;19.58;100.00
61037;BME280;57313;47.040;15.498;2022-07-24T05:16:12;97285.34;;;19.55;100.00
61037;BME280;57313;47.040;15.498;2022-07-24T05:18:39;97296.75;;;19.56;100.00
61037;BME280;57313;47.040;15.498;2022-07-24T05:21:09;97289.78;;;19.55;100.00
61037;BME280;57313;47.040;15.498;2022-07-24T05:23:37;97295.91;;;19.55;100.00
61037;BME280;57313;47.040;15.498;2022-07-24T05:26:04;97300.06;;;19.58;100.00
61037;BME280;57313;47.040;15.498;2022-07-24T05:28:32;97310.31;;;19.61;100.00
61037;BME280;57313;47.040;15.498;2022-07-24T05:31:00;97312.25;;;19.59;100.00
61037;BME280;57313;47.040;15.498;2022-07-24T05:33:28;97305.03;;;19.61;100.00
61037;BME280;57313;47.040;15.498;2022-07-24T05:35:56;97304.91;;;19.63;100.00
61037;BME280;57313;47.040;15.498;2022-07-24T05:38:25;97294.69;;;19.68;100.00
61037;BME280;57313;47.040;15.498;2022-07-24T05:40:52;97302.16;;;19.72;100.00
61037;BME280;57313;47.040;15.498;2022-07-24T05:43:20;97306.22;;;19.77;100.00
61037;BME280;57313;47.040;15.498;2022-07-24T05:45:47;97308.41;;;19.81;100.00
61037;BME280;57313;47.040;15.498;2022-07-24T05:48:15;97305.63;;;19.83;100.00
61037;BME280;57313;47.040;15.498;2022-07-24T05:50:43;97310.28;;;19.89;100.00
61037;BME280;57313;47.040;15.498;2022-07-24T05:53:11;97313.59;;;19.91;100.00
61037;BME280;57313;47.040;15.498;2022-07-24T05:55:41;97314.81;;;19.97;100.00
61037;BME280;57313;47.040;15.498;2022-07-24T05:58:08;97318.66;;;20.02;100.00
61037;BME280;57313;47.040;15.498;2022-07-24T06:00:36;97321.00;;;20.05;100.00
61037;BME280;57313;47.040;15.498;2022-07-24T06:03:04;97316.41;;;20.07;100.00
61037;BME280;57313;47.040;15.498;2022-07-24T06:05:32;97307.00;;;20.13;100.00
61037;BME280;57313;47.040;15.498;2022-07-24T06:07:59;97321.44;;;20.19;100.00
61037;BME280;57313;47.040;15.498;2022-07-24T06:10:27;97311.38;;;20.22;100.00
61037;BME280;57313;47.040;15.498;2022-07-24T06:12:58;97313.25;;;20.30;100.00
61037;BME280;57313;47.040;15.498;2022-07-24T06:15:26;97318.06;;;20.35;100.00
61037;BME280;57313;47.040;15.498;2022-07-24T06:17:54;97308.47;;;20.34;100.00
61037;BME280;57313;47.040;15.498;2022-07-24T06:20:22;97317.09;;;20.36;100.00
61037;BME280;57313;47.040;15.498;2022-07-24T06:22:50;97312.31;;;20.39;100.00
61037;BME280;57313;47.040;15.498;2022-07-24T06:25:17;97313.00;;;20.41;100.00
61037;BME280;57313;47.040;15.498;2022-07-24T06:27:46;97319.78;;;20.44;100.00
61037;BME280;57313;47.040;15.498;2022-07-24T06:30:18;97318.66;;;20.47;100.00
61037;BME280;57313;47.040;15.498;2022-07-24T06:32:46;97308.44;;;20.52;100.00
61037;BME280;57313;47.040;15.498;2022-07-24T06:35:13;97320.72;;;20.61;100.00
61037;BME280;57313;47.040;15.498;2022-07-24T06:37:41;97313.88;;;20.68;100.00
61037;BME280;57313;47.040;15.498;2022-07-24T06:40:15;97316.06;;;20.73;100.00
61037;BME280;57313;47.040;15.498;2022-07-24T06:42:43;97309.59;;;20.75;100.00
61037;BME280;57313;47.040;15.498;2022-07-24T06:45:11;97318.06;;;20.79;100.00
61037;BME280;57313;47.040;15.498;2022-07-24T06:47:41;97320.25;;;20.84;100.00
61037;BME280;57313;47.040;15.498;2022-07-24T06:50:10;97314.47;;;20.88;100.00
61037;BME280;57313;47.040;15.498;2022-07-24T06:52:38;97311.69;;;20.90;100.00
61037;BME280;57313;47.040;15.498;2022-07-24T06:55:06;97317.47;;;20.93;100.00
61037;BME280;57313;47.040;15.498;2022-07-24T06:57:35;97315.31;;;20.97;100.00
61037;BME280;57313;47.040;15.498;2022-07-24T07:00:05;97311.72;;;21.06;100.00
61037;BME280;57313;47.040;15.498;2022-07-24T07:02:33;97307.78;;;21.10;100.00
61037;BME280;57313;47.040;15.498;2022-07-24T07:05:02;97316.72;;;21.17;100.00
61037;BME280;57313;47.040;15.498;2022-07-24T07:07:29;97309.97;;;21.23;100.00
61037;BME280;57313;47.040;15.498;2022-07-24T07:09:57;97304.84;;;21.30;100.00
61037;BME280;57313;47.040;15.498;2022-07-24T07:12:24;97311.34;;;21.36;100.00
61037;BME280;57313;47.040;15.498;2022-07-24T07:14:52;97307.56;;;21.38;100.00
61037;BME280;57313;47.040;15.498;2022-07-24T07:17:19;97304.91;;;21.38;100.00
61037;BME280;57313;47.040;15.498;2022-07-24T07:19:46;97304.41;;;21.43;100.00
61037;BME280;57313;47.040;15.498;2022-07-24T07:22:15;97311.19;;;21.45;100.00
61037;BME280;57313;47.040;15.498;2022-07-24T07:24:43;97308.09;;;21.50;100.00
61037;BME280;57313;47.040;15.498;2022-07-24T07:27:12;97305.13;;;21.53;100.00
61037;BME280;57313;47.040;15.498;2022-07-24T07:29:39;97297.69;;;21.57;100.00
61037;BME280;57313;47.040;15.498;2022-07-24T07:32:07;97303.50;;;21.60;100.00
61037;BME280;57313;47.040;15.498;2022-07-24T07:34:34;97300.19;;;21.66;100.00
61037;BME280;57313;47.040;15.498;2022-07-24T07:37:02;97301.53;;;21.71;100.00
61037;BME280;57313;47.040;15.498;2022-07-24T07:39:31;97289.75;;;21.73;100.00
61037;BME280;57313;47.040;15.498;2022-07-24T07:41:58;97304.19;;;21.79;100.00
61037;BME280;57313;47.040;15.498;2022-07-24T07:44:25;97299.38;;;21.82;100.00
61037;BME280;57313;47.040;15.498;2022-07-24T07:49:20;97309.00;;;21.92;100.00
61037;BME280;57313;47.040;15.498;2022-07-24T07:51:47;97308.16;;;21.91;100.00
61037;BME280;57313;47.040;15.498;2022-07-24T07:54:15;97303.03;;;21.98;100.00
61037;BME280;57313;47.040;15.498;2022-07-24T07:56:44;97301.53;;;22.03;100.00
61037;BME280;57313;47.040;15.498;2022-07-24T07:59:12;97297.22;;;22.11;100.00
61037;BME280;57313;47.040;15.498;2022-07-24T08:01:39;97297.91;;;22.13;100.00
61037;BME280;57313;47.040;15.498;2022-07-24T08:04:07;97296.38;;;22.18;100.00
61037;BME280;57313;47.040;15.498;2022-07-24T08:06:34;97291.91;;;22.27;100.00
61037;BME280;57313;47.040;15.498;2022-07-24T08:09:02;97292.44;;;22.31;100.00
61037;BME280;57313;47.040;15.498;2022-07-24T08:11:31;97290.63;;;22.31;100.00
61037;BME280;57313;47.040;15.498;2022-07-24T08:13:59;97300.75;;;22.36;100.00
61037;BME280;57313;47.040;15.498;2022-07-24T08:16:27;97293.91;;;22.41;100.00
61037;BME280;57313;47.040;15.498;2022-07-24T08:18:55;97292.91;;;22.51;100.00
61037;BME280;57313;47.040;15.498;2022-07-24T08:21:22;97290.38;;;22.57;100.00
61037;BME280;57313;47.040;15.498;2022-07-24T08:23:50;97294.69;;;22.67;100.00
61037;BME280;57313;47.040;15.498;2022-07-24T08:26:18;97291.84;;;22.76;100.00
61037;BME280;57313;47.040;15.498;2022-07-24T08:28:45;97291.84;;;22.76;100.00
61037;BME280;57313;47.040;15.498;2022-07-24T08:31:15;97295.28;;;22.85;100.00
61037;BME280;57313;47.040;15.498;2022-07-24T08:33:42;97295.94;;;22.95;100.00
61037;BME280;57313;47.040;15.498;2022-07-24T08:36:09;97304.41;;;22.91;100.00
61037;BME280;57313;47.040;15.498;2022-07-24T08:38:37;97297.09;;;22.93;100.00
61037;BME280;57313;47.040;15.498;2022-07-24T08:41:05;97298.72;;;23.02;100.00
61037;BME280;57313;47.040;15.498;2022-07-24T08:43:33;97296.25;;;23.09;100.00
61037;BME280;57313;47.040;15.498;2022-07-24T08:46:02;97296.72;;;23.12;100.00
61037;BME280;57313;47.040;15.498;2022-07-24T08:48:33;97290.72;;;23.19;100.00
61037;BME280;57313;47.040;15.498;2022-07-24T08:51:01;97289.03;;;23.26;100.00
61037;BME280;57313;47.040;15.498;2022-07-24T08:53:29;97293.97;;;23.37;100.00
61037;BME280;57313;47.040;15.498;2022-07-24T08:55:56;97292.06;;;23.46;100.00
61037;BME280;57313;47.040;15.498;2022-07-24T08:58:25;97289.06;;;23.49;100.00
61037;BME280;57313;47.040;15.498;2022-07-24T09:00:53;97299.66;;;23.57;100.00
61037;BME280;57313;47.040;15.498;2022-07-24T09:03:20;97297.28;;;23.62;100.00
61037;BME280;57313;47.040;15.498;2022-07-24T09:05:58;97296.28;;;23.63;100.00
61037;BME280;57313;47.040;15.498;2022-07-24T09:08:26;97285.59;;;23.72;100.00
61037;BME280;57313;47.040;15.498;2022-07-24T09:10:55;97299.31;;;23.83;100.00
61037;BME280;57313;47.040;15.498;2022-07-24T09:13:25;97303.78;;;23.83;100.00
61037;BME280;57313;47.040;15.498;2022-07-24T09:15:52;97294.31;;;23.89;100.00
61037;BME280;57313;47.040;15.498;2022-07-24T09:18:28;97292.44;;;23.97;100.00
61037;BME280;57313;47.040;15.498;2022-07-24T09:20:59;97288.72;;;24.07;100.00
61037;BME280;57313;47.040;15.498;2022-07-24T09:23:38;97290.78;;;24.11;100.00
61037;BME280;57313;47.040;15.498;2022-07-24T09:26:06;97300.91;;;24.16;100.00
61037;BME280;57313;47.040;15.498;2022-07-24T09:28:46;97285.69;;;24.25;100.00
61037;BME280;57313;47.040;15.498;2022-07-24T09:31:14;97292.69;;;24.26;99.32
61037;BME280;57313;47.040;15.498;2022-07-24T09:33:42;97301.41;;;24.34;98.13
61037;BME280;57313;47.040;15.498;2022-07-24T09:36:15;97295.00;;;24.44;100.00
61037;BME280;57313;47.040;15.498;2022-07-24T09:38:47;97276.50;;;24.50;99.13
61037;BME280;57313;47.040;15.498;2022-07-24T09:41:22;97293.03;;;24.61;93.89
61037;BME280;57313;47.040;15.498;2022-07-24T09:43:57;97287.47;;;24.70;93.03
61037;BME280;57313;47.040;15.498;2022-07-24T09:46:25;97281.03;;;24.80;100.00
61037;BME280;57313;47.040;15.498;2022-07-24T09:48:55;97281.28;;;24.85;100.00
61037;BME280;57313;47.040;15.498;2022-07-24T09:51:26;97277.16;;;24.97;97.10
61037;BME280;57313;47.040;15.498;2022-07-24T09:53:56;97274.75;;;25.02;98.70
61037;BME280;57313;47.040;15.498;2022-07-24T09:56:24;97270.78;;;25.13;94.88
61037;BME280;57313;47.040;15.498;2022-07-24T09:58:52;97269.59;;;25.16;85.83
61037;BME280;57313;47.040;15.498;2022-07-24T10:01:23;97277.03;;;25.20;86.63
61037;BME280;57313;47.040;15.498;2022-07-24T10:03:52;97270.13;;;25.26;85.93
61037;BME280;57313;47.040;15.498;2022-07-24T10:06:22;97281.28;;;25.30;87.29
61037;BME280;57313;47.040;15.498;2022-07-24T10:08:52;97267.00;;;25.37;90.73
61037;BME280;57313;47.040;15.498;2022-07-24T10:11:20;97266.25;;;25.43;86.96
61037;BME280;57313;47.040;15.498;2022-07-24T10:13:47;97269.00;;;25.50;93.68
61037;BME280;57313;47.040;15.498;2022-07-24T10:16:26;97273.75;;;25.55;87.36
61037;BME280;57313;47.040;15.498;2022-07-24T10:18:55;97258.19;;;25.58;87.93
61037;BME280;57313;47.040;15.498;2022-07-24T10:21:24;97268.28;;;25.63;88.22
61037;BME280;57313;47.040;15.498;2022-07-24T10:24:12;97273.06;;;25.68;84.69
61037;BME280;57313;47.040;15.498;2022-07-24T10:26:48;97265.13;;;25.74;83.23
61037;BME280;57313;47.040;15.498;2022-07-24T10:29:18;97266.97;;;25.74;84.17
61037;BME280;57313;47.040;15.498;2022-07-24T10:31:47;97267.97;;;25.73;88.10
61037;BME280;57313;47.040;15.498;2022-07-24T10:34:21;97266.41;;;25.78;83.90
61037;BME280;57313;47.040;15.498;2022-07-24T10:36:59;97259.88;;;25.81;81.07
61037;BME280;57313;47.040;15.498;2022-07-24T10:39:37;97258.25;;;25.87;84.70
61037;BME280;57313;47.040;15.498;2022-07-24T10:42:08;97253.97;;;25.86;78.68
61037;BME280;57313;47.040;15.498;2022-07-24T10:44:35;97252.34;;;25.91;73.25
61037;BME280;57313;47.040;15.498;2022-07-24T10:47:07;97262.09;;;25.99;74.21
61037;BME280;57313;47.040;15.498;2022-07-24T10:49:43;97244.31;;;26.06;68.63
61037;BME280;57313;47.040;15.498;2022-07-24T10:52:21;97248.47;;;26.15;77.48
61037;BME280;57313;47.040;15.498;2022-07-24T10:55:23;97243.34;;;26.14;65.71
61037;BME280;57313;47.040;15.498;2022-07-24T10:58:02;97236.22;;;26.21;78.94
61037;BME280;57313;47.040;15.498;2022-07-24T11:00:32;97233.19;;;26.31;76.58
61037;BME280;57313;47.040;15.498;2022-07-24T11:03:08;97236.31;;;26.41;76.13
61037;BME280;57313;47.040;15.498;2022-07-24T11:06:02;97235.59;;;26.54;75.34
61037;BME280;57313;47.040;15.498;2022-07-24T11:08:29;97235.41;;;26.56;71.01
61037;BME280;57313;47.040;15.498;2022-07-24T11:11:04;97230.72;;;26.64;72.91
61037;BME280;57313;47.040;15.498;2022-07-24T11:13:50;97225.06;;;26.74;72.44
61037;BME280;57313;47.040;15.498;2022-07-24T11:16:25;97231.22;;;26.75;68.67
61037;BME280;57313;47.040;15.498;2022-07-24T11:19:26;97216.19;;;26.74;70.07
61037;BME280;57313;47.040;15.498;2022-07-24T11:22:10;97218.25;;;26.72;67.64
61037;BME280;57313;47.040;15.498;2022-07-24T11:25:05;97217.00;;;26.67;67.30
61037;BME280;57313;47.040;15.498;2022-07-24T11:27:55;97211.47;;;26.69;71.38
61037;BME280;57313;47.040;15.498;2022-07-24T11:30:26;97213.00;;;26.85;73.41
61037;BME280;57313;47.040;15.498;2022-07-24T11:32:55;97215.69;;;26.98;64.47
61037;BME280;57313;47.040;15.498;2022-07-24T11:35:32;97207.53;;;27.13;61.79
61037;BME280;57313;47.040;15.498;2022-07-24T11:38:00;97203.00;;;27.20;71.35
61037;BME280;57313;47.040;15.498;2022-07-24T11:40:28;97196.28;;;27.31;62.15
61037;BME280;57313;47.040;15.498;2022-07-24T11:42:59;97193.84;;;27.43;63.42
61037;BME280;57313;47.040;15.498;2022-07-24T11:45:35;97187.50;;;27.51;63.99
61037;BME280;57313;47.040;15.498;2022-07-24T11:48:03;97182.75;;;27.53;59.94
61037;BME280;57313;47.040;15.498;2022-07-24T11:50:30;97182.94;;;27.51;63.02
61037;BME280;57313;47.040;15.498;2022-07-24T11:52:58;97189.16;;;27.52;69.52
61037;BME280;57313;47.040;15.498;2022-07-24T11:55:25;97184.59;;;27.52;63.61
61037;BME280;57313;47.040;15.498;2022-07-24T11:57:55;97178.66;;;27.57;65.17
61037;BME280;57313;47.040;15.498;2022-07-24T12:00:44;97175.56;;;27.53;60.20
61037;BME280;57313;47.040;15.498;2022-07-24T12:03:11;97181.53;;;27.62;64.92
61037;BME280;57313;47.040;15.498;2022-07-24T12:05:40;97178.03;;;27.68;66.48
61037;BME280;57313;47.040;15.498;2022-07-24T12:08:17;97173.91;;;27.79;59.85
61037;BME280;57313;47.040;15.498;2022-07-24T12:10:45;97172.69;;;27.95;64.22
61037;BME280;57313;47.040;15.498;2022-07-24T12:13:12;97170.25;;;28.00;59.77
61037;BME280;57313;47.040;15.498;2022-07-24T12:15:45;97177.22;;;28.08;57.85
61037;BME280;57313;47.040;15.498;2022-07-24T12:18:12;97163.84;;;28.01;55.21
61037;BME280;57313;47.040;15.498;2022-07-24T12:20:42;97162.00;;;28.02;56.11
61037;BME280;57313;47.040;15.498;2022-07-24T12:23:12;97155.19;;;27.92;58.19
61037;BME280;57313;47.040;15.498;2022-07-24T12:25:42;97162.00;;;27.95;59.96
61037;BME280;57313;47.040;15.498;2022-07-24T12:28:11;97158.88;;;27.91;56.78
61037;BME280;57313;47.040;15.498;2022-07-24T12:30:40;97157.22;;;27.90;60.53
61037;BME280;57313;47.040;15.498;2022-07-24T12:33:20;97156.84;;;27.80;55.92
61037;BME280;57313;47.040;15.498;2022-07-24T12:35:56;97155.41;;;27.77;58.19
61037;BME280;57313;47.040;15.498;2022-07-24T12:38:25;97151.28;;;27.82;60.32
61037;BME280;57313;47.040;15.498;2022-07-24T12:41:02;97154.38;;;27.99;59.43
61037;BME280;57313;47.040;15.498;2022-07-24T12:43:30;97148.78;;;28.14;55.85
61037;BME280;57313;47.040;15.498;2022-07-24T12:46:08;97155.78;;;28.28;55.49
61037;BME280;57313;47.040;15.498;2022-07-24T12:48:37;97148.97;;;28.39;55.04
61037;BME280;57313;47.040;15.498;2022-07-24T12:51:07;97140.91;;;28.45;53.66
61037;BME280;57313;47.040;15.498;2022-07-24T12:53:37;97145.19;;;28.53;54.97
61037;BME280;57313;47.040;15.498;2022-07-24T12:56:09;97145.19;;;28.60;56.65
61037;BME280;57313;47.040;15.498;2022-07-24T12:58:57;97141.28;;;28.62;54.74